Time;durP1;ratioP1;P1;durP2;ratioP2;P2;SDS_P1;SDS_P2;PMS_P1;PMS_P2;Temp;Humidity;BMP_temperature;BMP_pressure;BME280_temperature;BME280_humidity;BME280_pressure;Samples;Min_cycle;Max_cycle;Signal;HPM_P1;HPM_P2
2022/04/06 00:00:22;;;;;;;70.65;36.83;;;;;;;;;;5072765;28;20435;-76
2022/04/06 00:02:48;;;;;;;58.22;32.53;;;;;;;;;;5076093;28;20047;-77
2022/04/06 00:05:13;;;;;;;49.47;26.52;;;;;;;;;;5073798;28;20113;-77
2022/04/06 00:07:39;;;;;;;54.95;29.80;;;;;;;;;;5075006;28;20027;-76
2022/04/06 00:10:05;;;;;;;66.40;35.63;;;;;;;;;;5075428;28;20060;-75
2022/04/06 00:12:31;;;;;;;82.35;45.80;;;;;;;;;;5074500;28;20048;-78
2022/04/06 00:14:56;;;;;;;82.22;46.78;;;;;;;;;;5067826;28;20028;-77
2022/04/06 00:17:21;;;;;;;91.20;50.10;;;;;;;;;;5072272;28;20028;-77
2022/04/06 00:19:47;;;;;;;68.47;35.97;;;;;;;;;;5072128;28;20064;-77
2022/04/06 00:22:12;;;;;;;58.25;31.60;;;;;;;;;;5074188;28;20116;-76
2022/04/06 00:24:38;;;;;;;66.18;32.83;;;;;;;;;;5074344;28;20039;-76
2022/04/06 00:27:03;;;;;;;70.80;36.50;;;;;;;;;;5075304;28;20113;-78
2022/04/06 00:29:28;;;;;;;58.58;29.15;;;;;;;;;;5075031;28;20031;-76
2022/04/06 00:31:54;;;;;;;59.22;29.50;;;;;;;;;;5056966;28;20035;-77
2022/04/06 00:34:19;;;;;;;49.13;24.48;;;;;;;;;;5078133;28;20114;-77
2022/04/06 00:36:45;;;;;;;57.20;31.80;;;;;;;;;;5074357;28;20078;-77
2022/04/06 00:39:12;;;;;;;47.50;27.60;;;;;;;;;;5073938;28;20439;-77
2022/04/06 00:41:39;;;;;;;56.88;30.58;;;;;;;;;;5075392;28;20020;-77
2022/04/06 00:44:15;;;;;;;46.85;25.35;;;;;;;;;;5047321;28;20110;-78
2022/04/06 00:46:41;;;;;;;40.60;24.50;;;;;;;;;;5076086;28;20122;-76
2022/04/06 00:49:13;;;;;;;42.00;20.85;;;;;;;;;;5073080;28;20052;-78
2022/04/06 00:51:48;;;;;;;48.13;19.65;;;;;;;;;;5077083;28;20027;-77
2022/04/06 00:54:14;;;;;;;42.15;20.50;;;;;;;;;;5072182;28;20042;-75
2022/04/06 00:56:39;;;;;;;40.08;19.85;;;;;;;;;;5074182;28;20031;-76
2022/04/06 00:59:05;;;;;;;26.88;13.98;;;;;;;;;;5073542;28;20039;-77
2022/04/06 01:01:31;;;;;;;30.48;15.27;;;;;;;;;;5068391;28;20024;-78
2022/04/06 01:03:56;;;;;;;32.10;17.80;;;;;;;;;;5067780;28;20429;-76
2022/04/06 01:06:21;;;;;;;42.58;23.10;;;;;;;;;;5070044;28;20127;-77
2022/04/06 01:08:47;;;;;;;55.05;28.50;;;;;;;;;;5061992;28;20020;-77
2022/04/06 01:11:13;;;;;;;56.20;28.25;;;;;;;;;;5068358;28;20339;-75
2022/04/06 01:13:39;;;;;;;73.22;34.60;;;;;;;;;;5068143;28;20025;-78
2022/04/06 01:16:04;;;;;;;55.00;27.10;;;;;;;;;;5062157;28;20056;-77
2022/04/06 01:18:33;;;;;;;42.90;21.52;;;;;;;;;;5060729;28;20095;-75
2022/04/06 01:20:58;;;;;;;69.70;31.90;;;;;;;;;;5058818;28;20051;-75
2022/04/06 01:23:24;;;;;;;66.60;32.38;;;;;;;;;;5058598;28;20075;-75
2022/04/06 01:25:49;;;;;;;53.75;24.58;;;;;;;;;;5058080;28;20028;-75
2022/04/06 01:28:15;;;;;;;51.78;24.90;;;;;;;;;;5060022;28;20032;-77
2022/04/06 01:30:40;;;;;;;41.80;20.48;;;;;;;;;;5060924;28;20054;-78
2022/04/06 01:33:06;;;;;;;30.65;17.23;;;;;;;;;;5073539;28;20032;-78
2022/04/06 01:35:31;;;;;;;29.63;15.70;;;;;;;;;;5074945;28;20035;-74
2022/04/06 01:37:56;;;;;;;30.30;16.40;;;;;;;;;;5071411;28;20027;-75
2022/04/06 01:40:25;;;;;;;35.53;19.30;;;;;;;;;;5074158;28;20026;-75
2022/04/06 01:42:50;;;;;;;35.28;19.20;;;;;;;;;;5070896;28;20432;-77
2022/04/06 01:45:15;;;;;;;39.10;20.48;;;;;;;;;;5061916;28;20052;-77
2022/04/06 01:47:41;;;;;;;32.80;20.13;;;;;;;;;;5078161;28;20349;-75
2022/04/06 01:52:52;;;;;;;30.55;19.05;;;;;;;;;;5070843;28;20473;-78
2022/04/06 01:55:17;;;;;;;25.63;14.80;;;;;;;;;;5073444;28;20035;-75
2022/04/06 01:57:43;;;;;;;26.70;14.15;;;;;;;;;;5075068;28;20176;-77
2022/04/06 02:00:16;;;;;;;27.92;16.30;;;;;;;;;;5074166;28;20039;-78
2022/04/06 02:02:43;;;;;;;30.98;16.23;;;;;;;;;;5070707;28;20024;-76
2022/04/06 02:05:09;;;;;;;40.30;20.15;;;;;;;;;;5066501;28;20458;-76
2022/04/06 02:07:35;;;;;;;39.35;21.20;;;;;;;;;;5058324;28;20056;-77
2022/04/06 02:10:02;;;;;;;35.60;17.95;;;;;;;;;;5065671;28;20025;-77
2022/04/06 02:12:29;;;;;;;26.58;13.35;;;;;;;;;;5076066;28;20067;-75
2022/04/06 02:14:55;;;;;;;33.42;15.90;;;;;;;;;;5072058;28;20107;-77
2022/04/06 02:17:20;;;;;;;41.60;19.02;;;;;;;;;;5067568;28;20111;-77
2022/04/06 02:19:46;;;;;;;30.23;16.90;;;;;;;;;;5060758;28;20036;-75
2022/04/06 02:22:11;;;;;;;27.10;16.10;;;;;;;;;;5061318;28;20067;-78
2022/04/06 02:24:37;;;;;;;25.50;15.40;;;;;;;;;;5065533;28;20320;-74
2022/04/06 02:27:05;;;;;;;31.23;16.77;;;;;;;;;;5071503;28;20024;-77
2022/04/06 02:29:31;;;;;;;36.38;18.48;;;;;;;;;;5052945;28;20124;-76
2022/04/06 02:31:56;;;;;;;44.67;20.67;;;;;;;;;;5066939;28;20110;-75
2022/04/06 02:34:21;;;;;;;36.45;17.33;;;;;;;;;;5077752;28;20032;-75
2022/04/06 02:36:47;;;;;;;27.25;13.27;;;;;;;;;;5067604;28;20035;-76
2022/04/06 02:39:12;;;;;;;25.33;12.50;;;;;;;;;;5077488;28;20093;-75
2022/04/06 02:41:37;;;;;;;52.03;19.35;;;;;;;;;;5067214;28;20048;-76
2022/04/06 02:44:03;;;;;;;41.50;17.02;;;;;;;;;;5077534;28;20040;-76
2022/04/06 02:46:29;;;;;;;35.67;16.92;;;;;;;;;;5076326;28;20032;-76
2022/04/06 02:48:54;;;;;;;46.50;25.30;;;;;;;;;;5077197;28;20032;-75
2022/04/06 02:51:19;;;;;;;46.00;24.70;;;;;;;;;;5049373;28;20107;-79
2022/04/06 02:53:45;;;;;;;42.35;24.48;;;;;;;;;;5076729;28;20399;-74
2022/04/06 02:56:10;;;;;;;53.55;23.83;;;;;;;;;;5076300;28;20074;-75
2022/04/06 02:58:35;;;;;;;38.92;17.73;;;;;;;;;;5074749;28;20067;-74
2022/04/06 03:01:01;;;;;;;37.95;20.05;;;;;;;;;;5073790;28;20128;-75
2022/04/06 03:03:26;;;;;;;37.58;18.13;;;;;;;;;;5076548;28;20026;-73
2022/04/06 03:05:52;;;;;;;36.83;19.35;;;;;;;;;;5069258;28;20017;-77
2022/04/06 03:08:17;;;;;;;38.92;20.63;;;;;;;;;;5072470;28;20524;-77
2022/04/06 03:10:43;;;;;;;43.47;22.67;;;;;;;;;;5072148;28;20019;-77
2022/04/06 03:13:08;;;;;;;48.03;25.40;;;;;;;;;;5071308;28;20033;-76
2022/04/06 03:15:34;;;;;;;44.13;22.83;;;;;;;;;;5065115;28;20123;-78
2022/04/06 03:17:59;;;;;;;44.53;23.40;;;;;;;;;;5073454;28;20122;-76
2022/04/06 03:20:25;;;;;;;41.03;22.25;;;;;;;;;;5078141;28;20050;-76
2022/04/06 03:22:50;;;;;;;40.95;20.70;;;;;;;;;;5075515;28;20031;-77
2022/04/06 03:25:15;;;;;;;40.80;23.20;;;;;;;;;;5066046;28;20039;-76
2022/04/06 03:27:41;;;;;;;37.80;21.40;;;;;;;;;;5074967;28;20055;-78
2022/04/06 03:30:10;;;;;;;38.60;21.05;;;;;;;;;;5077206;28;20039;-78
2022/04/06 03:32:35;;;;;;;38.47;19.75;;;;;;;;;;5074514;28;20043;-77
2022/04/06 03:35:01;;;;;;;31.95;17.30;;;;;;;;;;5055420;28;20045;-76
2022/04/06 03:37:26;;;;;;;32.08;16.58;;;;;;;;;;5065132;28;20035;-76
2022/04/06 03:39:51;;;;;;;28.55;15.32;;;;;;;;;;5076214;28;20031;-76
2022/04/06 03:42:17;;;;;;;29.70;16.17;;;;;;;;;;5074505;28;20040;-79
2022/04/06 03:44:43;;;;;;;44.95;24.10;;;;;;;;;;5074319;28;20648;-77
2022/04/06 03:47:08;;;;;;;69.20;40.17;;;;;;;;;;5071036;28;20040;-76
2022/04/06 03:49:33;;;;;;;67.72;37.95;;;;;;;;;;5075430;28;20086;-77
2022/04/06 03:51:59;;;;;;;67.40;35.20;;;;;;;;;;5057419;28;20024;-77
2022/04/06 03:54:24;;;;;;;66.32;33.63;;;;;;;;;;5077694;28;20028;-77
2022/04/06 03:56:50;;;;;;;74.20;34.42;;;;;;;;;;5079297;28;20063;-76
2022/04/06 03:59:15;;;;;;;53.00;26.73;;;;;;;;;;5073177;28;20032;-76
2022/04/06 04:01:40;;;;;;;63.97;35.55;;;;;;;;;;5074412;28;20115;-75
2022/04/06 04:04:06;;;;;;;63.53;33.05;;;;;;;;;;5063610;28;20032;-76
2022/04/06 04:06:31;;;;;;;48.60;26.98;;;;;;;;;;5065436;28;20038;-76
2022/04/06 04:08:57;;;;;;;44.25;26.20;;;;;;;;;;5076346;28;20956;-78
2022/04/06 04:11:22;;;;;;;68.43;34.08;;;;;;;;;;5055927;28;20033;-76
2022/04/06 04:13:48;;;;;;;71.80;35.42;;;;;;;;;;5076092;28;20140;-76
2022/04/06 04:16:13;;;;;;;80.50;41.15;;;;;;;;;;5074425;28;20521;-75
2022/04/06 04:18:39;;;;;;;81.30;39.60;;;;;;;;;;5060808;28;20360;-75
2022/04/06 04:23:48;;;;;;;195.65;85.93;;;;;;;;;;5061018;28;20119;-75
2022/04/06 04:26:14;;;;;;;101.25;45.42;;;;;;;;;;5063124;28;20103;-76
2022/04/06 04:28:39;;;;;;;58.95;30.00;;;;;;;;;;5061999;28;20086;-77
2022/04/06 04:31:04;;;;;;;42.95;23.10;;;;;;;;;;5076907;28;20028;-73
2022/04/06 04:33:30;;;;;;;25.92;13.70;;;;;;;;;;5075184;28;21096;-72
2022/04/06 04:35:56;;;;;;;24.27;13.65;;;;;;;;;;5068261;28;20044;-72
2022/04/06 04:38:21;;;;;;;22.48;14.13;;;;;;;;;;5063133;28;20089;-75
2022/04/06 04:40:47;;;;;;;24.27;14.65;;;;;;;;;;5062013;28;20035;-73
2022/04/06 04:43:12;;;;;;;29.67;16.88;;;;;;;;;;5063967;28;22776;-73
2022/04/06 04:45:37;;;;;;;37.42;21.33;;;;;;;;;;5061847;28;20071;-75
2022/04/06 04:48:03;;;;;;;43.55;24.67;;;;;;;;;;5073006;28;20430;-74
2022/04/06 04:50:29;;;;;;;36.13;22.52;;;;;;;;;;5072259;28;20021;-72
2022/04/06 04:52:54;;;;;;;50.15;27.08;;;;;;;;;;5072285;28;20425;-70
2022/04/06 04:55:20;;;;;;;88.32;50.13;;;;;;;;;;5071121;28;20036;-70
2022/04/06 04:57:45;;;;;;;134.50;71.43;;;;;;;;;;5062982;28;20145;-72
2022/04/06 05:00:11;;;;;;;87.80;45.35;;;;;;;;;;5064182;28;20451;-72
2022/04/06 05:02:36;;;;;;;79.50;40.85;;;;;;;;;;5063691;28;20111;-71
2022/04/06 05:05:03;;;;;;;104.95;54.80;;;;;;;;;;5062185;28;20456;-73
2022/04/06 05:07:28;;;;;;;60.42;34.85;;;;;;;;;;5070289;28;20027;-72
2022/04/06 05:09:53;;;;;;;106.07;64.75;;;;;;;;;;5069151;28;20024;-76
2022/04/06 05:12:19;;;;;;;153.10;90.30;;;;;;;;;;5075785;28;20062;-69
2022/04/06 05:14:45;;;;;;;132.07;75.68;;;;;;;;;;5075876;28;20431;-71
2022/04/06 05:17:10;;;;;;;122.00;67.25;;;;;;;;;;5059636;28;20024;-70
2022/04/06 05:19:35;;;;;;;114.47;60.40;;;;;;;;;;5066392;28;20114;-72
2022/04/06 05:22:01;;;;;;;109.65;52.10;;;;;;;;;;5070939;28;20169;-73
2022/04/06 05:24:26;;;;;;;122.82;62.28;;;;;;;;;;5060159;28;20029;-75
2022/04/06 05:26:52;;;;;;;142.85;73.60;;;;;;;;;;5059638;28;20051;-74
2022/04/06 05:29:17;;;;;;;85.78;43.08;;;;;;;;;;5062419;28;20056;-73
2022/04/06 05:31:42;;;;;;;104.15;53.20;;;;;;;;;;5058621;28;20050;-80
2022/04/06 05:34:08;;;;;;;82.78;42.50;;;;;;;;;;5063003;28;20024;-76
2022/04/06 05:36:33;;;;;;;67.80;30.27;;;;;;;;;;5065288;28;20032;-71
2022/04/06 05:38:59;;;;;;;52.10;27.85;;;;;;;;;;5069362;28;20041;-71
2022/04/06 05:41:24;;;;;;;58.85;34.75;;;;;;;;;;5067483;28;20024;-73
2022/04/06 05:43:49;;;;;;;47.83;26.63;;;;;;;;;;5073559;28;20040;-72
2022/04/06 05:46:15;;;;;;;40.35;23.67;;;;;;;;;;5071284;28;20070;-74
2022/04/06 05:48:40;;;;;;;34.15;19.63;;;;;;;;;;5066169;28;20024;-77
2022/04/06 05:51:06;;;;;;;43.03;25.85;;;;;;;;;;5068873;28;20107;-75
2022/04/06 05:53:31;;;;;;;67.35;41.63;;;;;;;;;;5071636;28;20025;-72
2022/04/06 05:55:57;;;;;;;69.18;38.33;;;;;;;;;;5075119;28;20052;-73
2022/04/06 05:58:22;;;;;;;34.40;19.85;;;;;;;;;;5069113;28;20026;-73
2022/04/06 06:00:48;;;;;;;31.73;17.73;;;;;;;;;;5075121;28;20059;-75
2022/04/06 06:03:13;;;;;;;86.18;40.80;;;;;;;;;;5070051;28;20027;-73
2022/04/06 06:05:38;;;;;;;58.25;30.08;;;;;;;;;;5071068;28;20429;-73
2022/04/06 06:08:04;;;;;;;45.85;25.95;;;;;;;;;;5067483;28;20020;-72
2022/04/06 06:10:29;;;;;;;43.22;24.58;;;;;;;;;;5071395;28;20036;-76
2022/04/06 06:12:55;;;;;;;39.78;23.45;;;;;;;;;;5070047;28;20033;-74
2022/04/06 06:15:20;;;;;;;41.20;22.48;;;;;;;;;;5069402;28;20055;-72
2022/04/06 06:17:46;;;;;;;54.70;27.95;;;;;;;;;;5066969;28;20497;-73
2022/04/06 06:20:11;;;;;;;55.17;28.80;;;;;;;;;;5071559;28;20035;-73
2022/04/06 06:22:36;;;;;;;40.78;23.60;;;;;;;;;;5072931;28;20035;-75
2022/04/06 06:25:02;;;;;;;39.83;22.25;;;;;;;;;;5071092;28;20039;-72
2022/04/06 06:27:27;;;;;;;45.08;23.17;;;;;;;;;;5067566;28;20028;-73
2022/04/06 06:29:53;;;;;;;28.05;16.33;;;;;;;;;;5074272;28;20439;-73
2022/04/06 06:32:18;;;;;;;26.73;13.70;;;;;;;;;;5069385;28;20082;-73
2022/04/06 06:34:44;;;;;;;42.58;23.73;;;;;;;;;;5071850;28;20043;-75
2022/04/06 06:37:10;;;;;;;38.33;20.77;;;;;;;;;;5072801;28;20065;-74
2022/04/06 06:39:36;;;;;;;38.92;21.70;;;;;;;;;;5067695;28;20027;-75
2022/04/06 06:42:03;;;;;;;32.47;20.10;;;;;;;;;;5066849;28;20043;-73
2022/04/06 06:44:28;;;;;;;25.42;16.90;;;;;;;;;;5071552;28;20045;-73
2022/04/06 06:46:53;;;;;;;36.13;21.05;;;;;;;;;;5071749;28;20028;-77
2022/04/06 06:49:19;;;;;;;112.90;52.15;;;;;;;;;;5070933;28;20119;-74
2022/04/06 06:51:44;;;;;;;75.80;37.20;;;;;;;;;;5068508;28;20031;-74
2022/04/06 06:54:09;;;;;;;23.95;14.45;;;;;;;;;;5071181;28;20046;-77
2022/04/06 06:56:35;;;;;;;20.15;11.50;;;;;;;;;;5067876;28;20458;-73
2022/04/06 06:59:00;;;;;;;20.00;10.40;;;;;;;;;;5069348;28;20109;-74
2022/04/06 07:01:26;;;;;;;17.00;10.48;;;;;;;;;;5072593;28;20078;-72
2022/04/06 07:03:51;;;;;;;23.20;13.85;;;;;;;;;;5071220;28;20024;-73
2022/04/06 07:06:17;;;;;;;23.42;16.95;;;;;;;;;;5071333;28;20467;-74
2022/04/06 07:08:42;;;;;;;26.90;17.10;;;;;;;;;;5073106;28;20024;-74
2022/04/06 07:11:08;;;;;;;23.70;17.65;;;;;;;;;;5073275;28;20092;-76
2022/04/06 07:13:33;;;;;;;16.13;10.73;;;;;;;;;;5074665;28;20451;-75
2022/04/06 07:15:58;;;;;;;9.88;7.18;;;;;;;;;;5077858;28;20068;-76
2022/04/06 07:18:24;;;;;;;13.45;8.68;;;;;;;;;;5079189;28;20029;-76
2022/04/06 07:20:49;;;;;;;14.95;7.18;;;;;;;;;;5080211;28;20442;-73
2022/04/06 07:23:14;;;;;;;9.77;5.65;;;;;;;;;;5076714;28;20033;-74
2022/04/06 07:25:40;;;;;;;7.05;5.75;;;;;;;;;;5075806;28;20461;-74
2022/04/06 07:28:05;;;;;;;6.95;4.38;;;;;;;;;;5077150;28;20032;-73
2022/04/06 07:30:31;;;;;;;6.82;4.50;;;;;;;;;;5076836;28;20118;-73
2022/04/06 07:32:58;;;;;;;9.32;4.68;;;;;;;;;;5074677;28;20017;-78
2022/04/06 07:35:23;;;;;;;7.88;5.05;;;;;;;;;;5073077;28;20024;-74
2022/04/06 07:37:50;;;;;;;7.35;5.35;;;;;;;;;;5077742;28;20028;-74
2022/04/06 07:40:24;;;;;;;36.05;16.90;;;;;;;;;;5073392;28;20094;-73
2022/04/06 07:42:50;;;;;;;9.18;5.88;;;;;;;;;;5072252;28;20505;-74
2022/04/06 07:45:17;;;;;;;7.65;5.20;;;;;;;;;;5072757;28;20059;-75
2022/04/06 07:47:43;;;;;;;11.80;6.32;;;;;;;;;;5073665;28;20111;-74
2022/04/06 07:50:09;;;;;;;8.10;5.78;;;;;;;;;;5073997;28;20089;-74
2022/04/06 07:52:38;;;;;;;17.88;10.00;;;;;;;;;;5072727;28;20451;-73
2022/04/06 07:55:07;;;;;;;12.95;8.10;;;;;;;;;;5078894;28;20027;-74
2022/04/06 07:57:32;;;;;;;10.32;7.70;;;;;;;;;;5076238;28;20028;-74
2022/04/06 07:59:58;;;;;;;7.53;5.68;;;;;;;;;;5077115;28;20043;-74
2022/04/06 08:02:23;;;;;;;7.13;4.40;;;;;;;;;;5071696;28;20493;-74
2022/04/06 08:04:50;;;;;;;7.50;5.47;;;;;;;;;;5074415;28;21401;-74
2022/04/06 08:07:16;;;;;;;13.18;6.68;;;;;;;;;;5075563;28;20517;-76
2022/04/06 08:09:41;;;;;;;7.28;5.45;;;;;;;;;;5077996;28;20032;-74
2022/04/06 08:12:06;;;;;;;8.63;5.10;;;;;;;;;;5072945;28;20800;-74
2022/04/06 08:14:32;;;;;;;6.57;4.68;;;;;;;;;;5073152;28;20035;-74
2022/04/06 08:16:58;;;;;;;9.38;5.68;;;;;;;;;;5072462;28;20458;-76
2022/04/06 08:19:23;;;;;;;7.25;3.67;;;;;;;;;;5072858;28;20021;-74
2022/04/06 08:21:49;;;;;;;7.53;4.43;;;;;;;;;;5075053;28;20026;-75
2022/04/06 08:24:20;;;;;;;4.93;3.45;;;;;;;;;;5073738;28;20035;-77
2022/04/06 08:26:46;;;;;;;9.25;4.82;;;;;;;;;;5072508;28;20358;-77
2022/04/06 08:29:11;;;;;;;10.90;5.22;;;;;;;;;;5074671;28;20407;-76
2022/04/06 08:31:37;;;;;;;8.15;4.72;;;;;;;;;;5076090;28;20495;-76
2022/04/06 08:34:04;;;;;;;6.57;3.90;;;;;;;;;;5074368;28;20121;-76
2022/04/06 08:36:29;;;;;;;8.27;4.63;;;;;;;;;;5074266;28;20039;-77
2022/04/06 08:38:55;;;;;;;6.07;3.40;;;;;;;;;;5072508;28;20021;-77
2022/04/06 08:41:26;;;;;;;4.15;2.95;;;;;;;;;;5073669;28;20028;-79
2022/04/06 08:43:55;;;;;;;6.40;4.38;;;;;;;;;;5070935;28;20055;-76
2022/04/06 08:46:21;;;;;;;4.63;3.50;;;;;;;;;;5072527;28;20023;-76
2022/04/06 08:48:53;;;;;;;6.15;3.30;;;;;;;;;;5075372;28;20355;-77
2022/04/06 08:51:19;;;;;;;4.78;3.63;;;;;;;;;;5071742;28;20917;-76
2022/04/06 08:53:45;;;;;;;9.07;5.40;;;;;;;;;;5073440;28;20544;-76
2022/04/06 08:56:14;;;;;;;308.75;157.30;;;;;;;;;;5074611;28;20469;-77
2022/04/06 08:58:39;;;;;;;89.18;46.60;;;;;;;;;;5075222;28;20107;-77
2022/04/06 09:01:05;;;;;;;19.45;11.90;;;;;;;;;;5073364;28;20115;-76
2022/04/06 09:03:31;;;;;;;7.78;4.53;;;;;;;;;;5073535;28;20074;-76
2022/04/06 09:06:04;;;;;;;6.88;4.28;;;;;;;;;;5076177;28;20024;-75
2022/04/06 09:08:35;;;;;;;9.85;5.75;;;;;;;;;;5066473;28;20081;-75
2022/04/06 09:11:07;;;;;;;15.27;8.05;;;;;;;;;;5075753;28;20444;-76
2022/04/06 09:13:33;;;;;;;6.07;3.30;;;;;;;;;;5075986;28;20039;-76
2022/04/06 09:16:01;;;;;;;4.72;2.83;;;;;;;;;;5072794;28;20389;-76
2022/04/06 09:18:33;;;;;;;3.50;2.73;;;;;;;;;;5075021;28;20106;-76
2022/04/06 09:21:02;;;;;;;6.57;3.78;;;;;;;;;;5073107;28;20744;-75
2022/04/06 09:23:31;;;;;;;6.95;3.83;;;;;;;;;;5074150;28;20107;-77
2022/04/06 09:26:00;;;;;;;6.45;3.65;;;;;;;;;;5073930;28;20029;-75
2022/04/06 09:28:26;;;;;;;6.20;2.90;;;;;;;;;;5072352;28;20060;-74
2022/04/06 09:30:52;;;;;;;5.90;3.65;;;;;;;;;;5074401;28;20067;-75
2022/04/06 09:33:19;;;;;;;8.23;4.78;;;;;;;;;;5074440;28;20023;-75
2022/04/06 09:35:44;;;;;;;5.35;3.28;;;;;;;;;;5072298;28;20024;-78
2022/04/06 09:38:11;;;;;;;5.82;3.45;;;;;;;;;;5074728;28;20035;-76
2022/04/06 09:40:40;;;;;;;5.65;3.63;;;;;;;;;;5074324;28;20031;-75
2022/04/06 09:43:06;;;;;;;5.90;3.90;;;;;;;;;;5070684;28;20028;-76
2022/04/06 09:48:15;;;;;;;4.70;3.33;;;;;;;;;;5069759;28;20097;-75
2022/04/06 09:50:51;;;;;;;3.90;2.78;;;;;;;;;;5071999;28;20021;-75
2022/04/06 09:53:17;;;;;;;4.55;2.40;;;;;;;;;;5070344;28;20462;-75
2022/04/06 09:55:43;;;;;;;3.72;2.70;;;;;;;;;;5073403;28;20036;-76
2022/04/06 09:58:10;;;;;;;2.85;2.45;;;;;;;;;;5072419;28;20057;-76
2022/04/06 10:00:37;;;;;;;4.20;2.63;;;;;;;;;;5070190;28;20032;-77
2022/04/06 10:03:04;;;;;;;4.00;3.03;;;;;;;;;;5072380;28;20028;-76
2022/04/06 10:05:31;;;;;;;3.92;3.05;;;;;;;;;;5070319;28;20064;-78
2022/04/06 10:07:59;;;;;;;5.53;3.55;;;;;;;;;;5069582;28;20100;-76
2022/04/06 10:10:25;;;;;;;3.00;2.70;;;;;;;;;;5074339;28;20028;-76
2022/04/06 10:12:50;;;;;;;4.55;3.22;;;;;;;;;;5069361;28;20150;-75
2022/04/06 10:15:17;;;;;;;3.00;2.38;;;;;;;;;;5074103;28;20425;-78
2022/04/06 10:17:42;;;;;;;2.65;2.13;;;;;;;;;;5071645;28;20136;-78
2022/04/06 10:20:25;;;;;;;2.05;1.75;;;;;;;;;;5069159;28;20095;-76
2022/04/06 10:23:20;;;;;;;5.07;2.72;;;;;;;;;;5053434;28;20082;-77
2022/04/06 10:25:54;;;;;;;2.70;1.88;;;;;;;;;;5065503;28;20703;-78
2022/04/06 10:28:21;;;;;;;3.33;2.22;;;;;;;;;;5072078;28;20051;-76
2022/04/06 10:31:05;;;;;;;2.90;2.60;;;;;;;;;;5074004;28;20028;-76
2022/04/06 10:33:32;;;;;;;2.90;2.15;;;;;;;;;;5071906;28;20024;-76
2022/04/06 10:36:15;;;;;;;3.08;2.13;;;;;;;;;;5074454;28;20047;-75
2022/04/06 10:38:40;;;;;;;2.25;2.00;;;;;;;;;;5075194;28;20106;-75
2022/04/06 10:41:06;;;;;;;2.78;2.00;;;;;;;;;;5072759;28;20219;-76
2022/04/06 10:43:34;;;;;;;6.68;1.90;;;;;;;;;;5070982;28;20434;-75
2022/04/06 10:46:00;;;;;;;4.15;2.15;;;;;;;;;;5070647;28;20049;-76
2022/04/06 10:48:26;;;;;;;2.30;1.95;;;;;;;;;;5074456;28;20025;-77
2022/04/06 10:50:51;;;;;;;2.80;1.83;;;;;;;;;;5075100;28;20405;-77
2022/04/06 10:53:20;;;;;;;2.10;1.73;;;;;;;;;;5078892;28;20023;-76
2022/04/06 10:56:06;;;;;;;4.63;1.60;;;;;;;;;;5078800;28;20020;-77
2022/04/06 10:58:50;;;;;;;1.67;1.58;;;;;;;;;;5075621;28;20434;-75
2022/04/06 11:01:16;;;;;;;2.28;1.50;;;;;;;;;;5073026;28;20028;-74
2022/04/06 11:03:45;;;;;;;3.55;1.60;;;;;;;;;;5074780;28;20032;-75
2022/04/06 11:06:10;;;;;;;2.20;1.42;;;;;;;;;;5075845;28;20028;-75
2022/04/06 11:11:39;;;;;;;10.02;6.72;;;;;;;;;;5074245;28;20027;-74
2022/04/06 11:14:05;;;;;;;34.90;19.52;;;;;;;;;;5076601;28;20153;-76
2022/04/06 11:16:41;;;;;;;4.28;3.28;;;;;;;;;;5077955;28;20119;-76
2022/04/06 11:19:06;;;;;;;2.10;1.90;;;;;;;;;;5074808;28;20020;-76
2022/04/06 11:21:32;;;;;;;1.40;1.30;;;;;;;;;;5074710;28;20032;-77
2022/04/06 11:23:57;;;;;;;1.40;1.30;;;;;;;;;;5078239;28;20123;-77
2022/04/06 11:26:23;;;;;;;2.90;1.35;;;;;;;;;;5078455;28;20032;-76
2022/04/06 11:28:58;;;;;;;1.30;1.20;;;;;;;;;;5077340;28;20464;-77
2022/04/06 11:31:24;;;;;;;2.13;1.48;;;;;;;;;;5076099;28;20035;-77
2022/04/06 11:33:49;;;;;;;3.33;1.77;;;;;;;;;;5076013;28;20020;-75
2022/04/06 11:36:15;;;;;;;2.67;1.48;;;;;;;;;;5077192;28;20063;-74
2022/04/06 11:38:41;;;;;;;2.15;1.65;;;;;;;;;;5077182;28;20435;-75
2022/04/06 11:41:06;;;;;;;2.58;1.67;;;;;;;;;;5076011;28;20039;-76
2022/04/06 11:43:34;;;;;;;2.42;1.40;;;;;;;;;;5062004;28;20035;-79
2022/04/06 11:45:59;;;;;;;2.10;1.60;;;;;;;;;;5044382;28;20047;-77
2022/04/06 11:48:37;;;;;;;2.22;1.80;;;;;;;;;;5049904;28;20024;-75
2022/04/06 11:51:03;;;;;;;2.78;2.15;;;;;;;;;;5067904;28;20025;-75
2022/04/06 11:53:28;;;;;;;5.35;3.25;;;;;;;;;;5062709;28;20893;-75
2022/04/06 11:55:54;;;;;;;6.05;4.72;;;;;;;;;;5050221;28;20040;-76
2022/04/06 11:58:30;;;;;;;2.20;1.70;;;;;;;;;;5062991;28;20374;-75
2022/04/06 12:00:59;;;;;;;5.43;4.93;;;;;;;;;;5059332;28;20024;-75
2022/04/06 12:03:28;;;;;;;2.42;2.22;;;;;;;;;;5064299;28;20048;-74
2022/04/06 12:05:54;;;;;;;2.17;1.67;;;;;;;;;;5060371;28;20929;-78
2022/04/06 12:08:19;;;;;;;1.75;1.40;;;;;;;;;;5057256;28;20104;-76
2022/04/06 12:10:52;;;;;;;3.05;1.85;;;;;;;;;;5050036;28;20170;-74
2022/04/06 12:13:18;;;;;;;1.33;1.23;;;;;;;;;;5056928;28;20032;-75
2022/04/06 12:15:44;;;;;;;1.77;1.00;;;;;;;;;;5059781;28;20106;-75
2022/04/06 12:18:10;;;;;;;1.38;1.20;;;;;;;;;;5050518;28;20412;-76
2022/04/06 12:20:35;;;;;;;1.35;1.17;;;;;;;;;;5064749;28;20102;-77
2022/04/06 12:23:02;;;;;;;3.03;1.70;;;;;;;;;;5066575;28;20359;-76
2022/04/06 12:25:31;;;;;;;6.40;2.00;;;;;;;;;;5065200;28;20069;-77
2022/04/06 12:28:15;;;;;;;4.40;2.25;;;;;;;;;;5065040;28;20112;-78
2022/04/06 12:30:57;;;;;;;2.15;1.80;;;;;;;;;;5070093;28;20035;-75
2022/04/06 12:33:38;;;;;;;2.13;1.27;;;;;;;;;;5062811;28;20505;-74
2022/04/06 12:36:20;;;;;;;1.40;1.10;;;;;;;;;;5044169;28;20418;-77
2022/04/06 12:38:57;;;;;;;1.63;1.40;;;;;;;;;;5066948;28;20020;-78
2022/04/06 12:41:23;;;;;;;5.15;2.88;;;;;;;;;;5060408;28;20025;-75
2022/04/06 12:43:49;;;;;;;4.15;2.50;;;;;;;;;;5064292;28;20040;-75
2022/04/06 12:46:34;;;;;;;16.40;7.90;;;;;;;;;;5065094;28;20436;-77
2022/04/06 12:49:18;;;;;;;6.70;2.50;;;;;;;;;;5074194;28;20021;-78
2022/04/06 12:51:44;;;;;;;3.42;2.00;;;;;;;;;;5074098;28;20111;-77
2022/04/06 12:54:09;;;;;;;2.20;2.00;;;;;;;;;;5075556;28;20522;-75
2022/04/06 12:56:34;;;;;;;4.47;1.83;;;;;;;;;;5072132;28;20077;-79
2022/04/06 12:59:07;;;;;;;2.58;1.80;;;;;;;;;;5071155;28;20111;-78
2022/04/06 13:01:32;;;;;;;3.08;2.03;;;;;;;;;;5065925;28;20039;-77
2022/04/06 13:03:58;;;;;;;3.42;2.20;;;;;;;;;;5066310;28;20033;-77
2022/04/06 13:06:23;;;;;;;7.25;4.32;;;;;;;;;;5063323;28;20087;-76
2022/04/06 13:08:48;;;;;;;5.72;3.33;;;;;;;;;;5064077;28;20023;-77
2022/04/06 13:11:14;;;;;;;3.72;2.70;;;;;;;;;;5065998;28;20837;-77
2022/04/06 13:13:39;;;;;;;5.80;3.03;;;;;;;;;;5073223;28;20157;-80
2022/04/06 13:16:05;;;;;;;4.82;2.45;;;;;;;;;;5064568;28;20027;-77
2022/04/06 13:18:30;;;;;;;2.33;2.10;;;;;;;;;;5065024;28;20031;-77
2022/04/06 13:20:56;;;;;;;2.72;2.13;;;;;;;;;;5061841;28;20091;-80
2022/04/06 13:23:21;;;;;;;2.80;2.17;;;;;;;;;;5061382;28;20029;-76
2022/04/06 13:25:47;;;;;;;2.95;2.55;;;;;;;;;;5066074;28;20058;-78
2022/04/06 13:28:13;;;;;;;5.18;2.28;;;;;;;;;;5033369;28;20107;-77
2022/04/06 13:30:39;;;;;;;3.15;2.10;;;;;;;;;;5051154;28;20031;-78
2022/04/06 13:33:04;;;;;;;3.55;1.60;;;;;;;;;;5059258;28;20016;-79
2022/04/06 13:35:30;;;;;;;2.17;1.33;;;;;;;;;;5052961;28;20366;-77
2022/04/06 13:37:55;;;;;;;1.38;1.27;;;;;;;;;;5050918;28;20386;-77
2022/04/06 13:40:20;;;;;;;2.92;1.30;;;;;;;;;;5049549;28;20040;-76
2022/04/06 13:42:46;;;;;;;1.70;1.30;;;;;;;;;;5051358;28;20024;-77
2022/04/06 13:45:11;;;;;;;1.10;1.00;;;;;;;;;;5056471;28;20057;-76
2022/04/06 13:47:37;;;;;;;2.17;1.08;;;;;;;;;;5057426;28;20061;-77
2022/04/06 13:50:02;;;;;;;1.58;1.23;;;;;;;;;;5057344;28;20458;-77
2022/04/06 13:52:29;;;;;;;1.50;1.30;;;;;;;;;;5055772;28;20709;-78
2022/04/06 13:54:56;;;;;;;2.28;1.60;;;;;;;;;;5057366;28;20039;-78
2022/04/06 13:57:22;;;;;;;2.38;1.85;;;;;;;;;;5057429;28;20020;-78
2022/04/06 13:59:47;;;;;;;1.85;1.50;;;;;;;;;;5051256;28;20793;-77
2022/04/06 14:02:13;;;;;;;2.95;2.47;;;;;;;;;;5050328;28;20804;-78
2022/04/06 14:04:39;;;;;;;2.78;2.10;;;;;;;;;;5049581;28;20028;-78
2022/04/06 14:07:05;;;;;;;3.42;2.75;;;;;;;;;;5054007;28;20118;-78
2022/04/06 14:09:30;;;;;;;2.58;1.85;;;;;;;;;;5054843;28;20044;-76
2022/04/06 14:11:57;;;;;;;1.95;1.42;;;;;;;;;;5055928;28;20550;-77
2022/04/06 14:14:22;;;;;;;3.65;1.60;;;;;;;;;;5047141;28;20434;-77
2022/04/06 14:16:48;;;;;;;2.58;1.40;;;;;;;;;;5042811;28;20035;-80
2022/04/06 14:19:13;;;;;;;2.40;1.70;;;;;;;;;;5044241;28;20025;-74
2022/04/06 14:21:39;;;;;;;3.35;1.77;;;;;;;;;;5047172;28;20059;-77
2022/04/06 14:24:05;;;;;;;3.58;2.40;;;;;;;;;;5057032;28;20036;-76
2022/04/06 14:26:31;;;;;;;4.05;3.20;;;;;;;;;;5052506;28;20398;-75
2022/04/06 14:28:57;;;;;;;1.75;1.65;;;;;;;;;;5054190;28;20024;-75
2022/04/06 14:31:22;;;;;;;1.75;1.60;;;;;;;;;;5058191;28;20025;-74
2022/04/06 14:33:48;;;;;;;3.15;1.50;;;;;;;;;;5058719;28;20033;-74
2022/04/06 14:36:13;;;;;;;2.00;1.35;;;;;;;;;;5061399;28;20043;-74